Time;durP1;ratioP1;P1;durP2;ratioP2;P2;SDS_P1;SDS_P2;PMS_P1;PMS_P2;Temp;Humidity;BMP_temperature;BMP_pressure;BME280_temperature;BME280_humidity;BME280_pressure;Samples;Min_cycle;Max_cycle;Signal;HPM_P1;HPM_P2
2022/10/01 00:00:51;;;;;;;;;;;;;;;9.61;100.00;100063.28;5045708;28;19931;-75
2022/10/01 00:03:16;;;;;;;;;;;;;;;9.60;100.00;100061.56;5044018;28;19928;-76
2022/10/01 00:05:42;;;;;;;;;;;;;;;9.58;100.00;100046.75;5045534;28;19960;-75
2022/10/01 00:08:07;;;;;;;;;;;;;;;9.58;100.00;100036.19;5044657;28;20314;-76
2022/10/01 00:10:33;;;;;;;;;;;;;;;9.57;100.00;100043.25;5047492;28;19936;-76
2022/10/01 00:12:59;;;;;;;;;;;;;;;9.56;100.00;100038.91;5045612;28;20383;-76
2022/10/01 00:15:25;;;;;;;;;;;;;;;9.55;100.00;100025.75;5047460;28;19935;-77
2022/10/01 00:17:51;;;;;;;;;;;;;;;9.54;100.00;100027.56;5047187;28;20032;-76
2022/10/01 00:20:16;;;;;;;;;;;;;;;9.55;100.00;100017.84;5062548;28;19924;-76
2022/10/01 00:22:42;;;;;;;;;;;;;;;9.53;100.00;100006.50;5046938;28;19974;-76
2022/10/01 00:25:07;;;;;;;;;;;;;;;9.53;100.00;100009.97;5047647;28;21257;-76
2022/10/01 00:27:34;;;;;;;;;;;;;;;9.52;100.00;100000.34;5043983;28;19929;-75
2022/10/01 00:29:59;;;;;;;;;;;;;;;9.51;100.00;99993.38;5048325;28;20456;-76
2022/10/01 00:32:25;;;;;;;;;;;;;;;9.49;100.00;99990.81;5046801;28;19932;-76
2022/10/01 00:34:52;;;;;;;;;;;;;;;9.50;100.00;99970.53;5046814;28;20385;-77
2022/10/01 00:37:18;;;;;;;;;;;;;;;9.49;100.00;99979.41;5047249;28;19979;-77
2022/10/01 00:39:43;;;;;;;;;;;;;;;9.49;100.00;99969.66;5043802;28;20667;-76
2022/10/01 00:42:26;;;;;;;;;;;;;;;9.47;100.00;99936.34;5045304;28;19971;-77
2022/10/01 00:44:52;;;;;;;;;;;;;;;9.46;100.00;99943.44;5046356;28;19931;-77
2022/10/01 00:47:20;;;;;;;;;;;;;;;9.46;100.00;99945.19;5043152;28;20588;-75
2022/10/01 00:49:46;;;;;;;;;;;;;;;9.46;100.00;99929.34;5044444;28;19925;-76
2022/10/01 00:52:12;;;;;;;;;;;;;;;9.45;100.00;99931.16;5025030;28;19924;-75
2022/10/01 00:54:42;;;;;;;;;;;;;;;9.45;100.00;99927.66;5044509;28;21731;-75
2022/10/01 00:57:07;;;;;;;;;;;;;;;9.44;100.00;99916.25;5043035;28;20015;-76
2022/10/01 00:59:33;;;;;;;;;;;;;;;9.44;100.00;99912.75;5044837;28;19931;-75
2022/10/01 01:01:58;;;;;;;;;;;;;;;9.43;100.00;99925.09;5042553;28;19947;-75
2022/10/01 01:04:24;;;;;;;;;;;;;;;9.43;100.00;99911.88;5044433;28;20342;-75
2022/10/01 01:06:54;;;;;;;;;;;;;;;9.43;100.00;99889.91;5045102;28;19933;-76
2022/10/01 01:09:24;;;;;;;;;;;;;;;9.41;100.00;99900.53;5044948;28;20447;-75
2022/10/01 01:11:53;;;;;;;;;;;;;;;9.43;100.00;99908.41;5045512;28;20418;-76
2022/10/01 01:14:32;;;;;;;;;;;;;;;9.42;100.00;99904.88;5044844;28;20018;-76
2022/10/01 01:16:59;;;;;;;;;;;;;;;9.41;100.00;99902.34;5044517;28;19929;-76
2022/10/01 01:19:28;;;;;;;;;;;;;;;9.40;100.00;99875.06;5045786;28;19924;-77
2022/10/01 01:21:55;;;;;;;;;;;;;;;9.41;100.00;99846.88;5046353;28;19924;-77
2022/10/01 01:24:23;;;;;;;;;;;;;;;9.40;100.00;99831.94;5044483;28;20311;-79
2022/10/01 01:26:55;;;;;;;;;;;;;;;9.38;100.00;99835.53;5046016;28;19955;-80
2022/10/01 01:29:23;;;;;;;;;;;;;;;9.38;100.00;99832.88;5077655;28;19931;-82
2022/10/01 01:31:49;;;;;;;;;;;;;;;9.38;100.00;99834.69;5047326;28;20017;-79
2022/10/01 01:34:22;;;;;;;;;;;;;;;9.40;100.00;99842.50;5047706;28;20718;-79
2022/10/01 01:36:50;;;;;;;;;;;;;;;9.38;100.00;99846.09;5049142;28;19936;-79
2022/10/01 01:39:15;;;;;;;;;;;;;;;9.39;100.00;99841.66;5047370;28;19924;-78
2022/10/01 01:41:56;;;;;;;;;;;;;;;9.40;100.00;99842.50;5046802;28;19951;-78
2022/10/01 01:44:23;;;;;;;;;;;;;;;9.40;100.00;99843.38;5048080;28;19964;-78
2022/10/01 01:46:48;;;;;;;;;;;;;;;9.41;100.00;99833.66;5036288;28;19932;-78
2022/10/01 01:49:16;;;;;;;;;;;;;;;9.41;100.00;99831.03;5043914;28;22494;-79
2022/10/01 01:51:56;;;;;;;;;;;;;;;9.44;100.00;99849.34;5048054;28;20066;-78
2022/10/01 01:54:21;;;;;;;;;;;;;;;9.44;100.00;99834.34;5027988;28;20384;-78
2022/10/01 01:56:48;;;;;;;;;;;;;;;9.44;100.00;99815.84;5029255;28;20028;-78
2022/10/01 01:59:17;;;;;;;;;;;;;;;9.45;100.00;99803.47;5078028;28;19940;-78
2022/10/01 02:01:43;;;;;;;;;;;;;;;9.47;100.00;99796.31;5045242;28;20031;-77
2022/10/01 02:04:14;;;;;;;;;;;;;;;9.47;100.00;99791.88;5047690;28;19924;-78
2022/10/01 02:06:46;;;;;;;;;;;;;;;9.50;100.00;99790.84;5047439;28;19929;-77
2022/10/01 02:09:14;;;;;;;;;;;;;;;9.51;100.00;99800.47;5047031;28;19929;-77
2022/10/01 02:11:43;;;;;;;;;;;;;;;9.53;100.00;99780.09;5046906;28;19960;-77
2022/10/01 02:14:08;;;;;;;;;;;;;;;9.54;100.00;99781.81;5049085;28;20043;-77
2022/10/01 02:16:38;;;;;;;;;;;;;;;9.56;100.00;99779.94;5047828;28;19954;-77
2022/10/01 02:19:22;;;;;;;;;;;;;;;9.57;100.00;99776.34;5045886;28;19931;-77
2022/10/01 02:21:54;;;;;;;;;;;;;;;9.58;100.00;99762.19;5046153;28;20888;-78
2022/10/01 02:24:25;;;;;;;;;;;;;;;9.59;100.00;99761.25;5055609;28;21023;-77
2022/10/01 02:26:51;;;;;;;;;;;;;;;9.61;100.00;99753.22;5048040;28;19929;-77
2022/10/01 02:29:16;;;;;;;;;;;;;;;9.62;100.00;99745.22;5047118;28;19932;-77
2022/10/01 02:31:42;;;;;;;;;;;;;;;9.64;100.00;99755.69;5045628;28;20501;-77
2022/10/01 02:34:07;;;;;;;;;;;;;;;9.66;100.00;99751.19;5048835;28;19960;-78
2022/10/01 02:36:33;;;;;;;;;;;;;;;9.68;100.00;99751.94;5063395;28;19928;-77
2022/10/01 02:38:59;;;;;;;;;;;;;;;9.69;100.00;99747.50;5047807;28;19936;-79
2022/10/01 02:41:26;;;;;;;;;;;;;;;9.69;100.00;99740.41;5049818;28;19979;-78
2022/10/01 02:43:53;;;;;;;;;;;;;;;9.72;100.00;99742.03;5027935;28;19959;-79
2022/10/01 02:46:20;;;;;;;;;;;;;;;9.71;100.00;99738.56;5064037;28;19974;-78
2022/10/01 02:48:48;;;;;;;;;;;;;;;9.72;100.00;99737.59;5047397;28;21322;-78
2022/10/01 02:51:17;;;;;;;;;;;;;;;9.74;100.00;99726.91;5047585;28;19925;-79
2022/10/01 02:53:44;;;;;;;;;;;;;;;9.74;100.00;99721.63;5046453;28;19928;-78
2022/10/01 02:56:13;;;;;;;;;;;;;;;9.75;100.00;99737.41;5045357;28;19928;-78
2022/10/01 02:58:40;;;;;;;;;;;;;;;9.77;100.00;99732.88;5046986;28;19924;-79
2022/10/01 03:01:06;;;;;;;;;;;;;;;9.79;100.00;99722.22;5048963;28;20298;-78
2022/10/01 03:03:31;;;;;;;;;;;;;;;9.79;100.00;99709.00;5044256;28;19929;-78
2022/10/01 03:05:57;;;;;;;;;;;;;;;9.82;100.00;99721.19;5042835;28;19928;-79
2022/10/01 03:08:22;;;;;;;;;;;;;;;9.82;100.00;99710.59;5047908;28;19928;-79
2022/10/01 03:10:49;;;;;;;;;;;;;;;9.83;100.00;99707.88;5047467;28;20457;-77
2022/10/01 03:13:16;;;;;;;;;;;;;;;9.85;100.00;99711.28;5049002;28;20383;-77
2022/10/01 03:15:44;;;;;;;;;;;;;;;9.87;100.00;99698.81;5044147;28;20028;-77
2022/10/01 03:18:09;;;;;;;;;;;;;;;9.89;100.00;99701.38;5046409;28;20427;-78
2022/10/01 03:20:35;;;;;;;;;;;;;;;9.89;100.00;99699.56;5046808;28;19940;-78
2022/10/01 03:23:00;;;;;;;;;;;;;;;9.91;100.00;99695.03;5043597;28;19932;-78
2022/10/01 03:25:26;;;;;;;;;;;;;;;9.92;100.00;99703.84;5045927;28;19929;-78
2022/10/01 03:27:51;;;;;;;;;;;;;;;9.93;100.00;99694.97;5047057;28;19932;-78
2022/10/01 03:30:17;;;;;;;;;;;;;;;9.94;100.00;99695.78;5046689;28;19935;-78
2022/10/01 03:32:42;;;;;;;;;;;;;;;9.96;100.00;99691.28;5044107;28;20666;-79
2022/10/01 03:35:08;;;;;;;;;;;;;;;9.97;100.00;99682.41;5044492;28;19933;-77
2022/10/01 03:37:33;;;;;;;;;;;;;;;9.99;100.00;99696.38;5046257;28;19968;-77
2022/10/01 03:39:58;;;;;;;;;;;;;;;10.00;100.00;99700.69;5043588;28;20323;-78
2022/10/01 03:42:24;;;;;;;;;;;;;;;10.02;100.00;99690.91;5046848;28;19929;-77
2022/10/01 03:44:49;;;;;;;;;;;;;;;10.03;100.00;99687.31;5045224;28;19929;-78
2022/10/01 03:47:15;;;;;;;;;;;;;;;10.04;100.00;99707.50;5043133;28;19928;-77
2022/10/01 03:49:40;;;;;;;;;;;;;;;10.05;100.00;99709.22;5043498;28;19932;-77
2022/10/01 03:52:06;;;;;;;;;;;;;;;10.07;100.00;99715.25;5044495;28;19929;-77
2022/10/01 03:54:32;;;;;;;;;;;;;;;10.10;100.00;99711.56;5044575;28;19979;-77
2022/10/01 03:56:57;;;;;;;;;;;;;;;10.11;100.00;99719.41;5035890;28;19929;-77
2022/10/01 03:59:23;;;;;;;;;;;;;;;10.14;100.00;99711.28;5043269;28;20583;-77
2022/10/01 04:01:48;;;;;;;;;;;;;;;10.17;100.00;99724.31;5044395;28;19968;-77
2022/10/01 04:04:13;;;;;;;;;;;;;;;10.21;100.00;99721.47;5044910;28;19935;-78
2022/10/01 04:06:39;;;;;;;;;;;;;;;10.24;100.00;99711.56;5039925;28;19936;-77
2022/10/01 04:09:04;;;;;;;;;;;;;;;10.27;100.00;99708.75;5043276;28;19975;-78
2022/10/01 04:11:29;;;;;;;;;;;;;;;10.33;100.00;99726.00;5044418;28;19979;-78
2022/10/01 04:13:56;;;;;;;;;;;;;;;10.39;100.00;99720.34;5042588;28;21205;-78
2022/10/01 04:16:23;;;;;;;;;;;;;;;10.46;100.00;99704.94;5044248;28;19936;-78
2022/10/01 04:18:48;;;;;;;;;;;;;;;10.52;100.00;99707.22;5042829;28;19970;-79
2022/10/01 04:21:14;;;;;;;;;;;;;;;10.56;100.00;99716.66;5046564;28;20002;-79
2022/10/01 04:23:39;;;;;;;;;;;;;;;10.60;100.00;99712.03;5046821;28;19951;-78
2022/10/01 04:26:05;;;;;;;;;;;;;;;10.65;100.00;99704.66;5043936;28;19929;-78
2022/10/01 04:28:30;;;;;;;;;;;;;;;10.68;100.00;99716.84;5044639;28;19936;-78
2022/10/01 04:33:40;;;;;;;;;;;;;;;10.78;100.00;99735.63;5046139;28;19956;-78
2022/10/01 04:36:05;;;;;;;;;;;;;;;10.82;100.00;99727.41;5061581;28;20354;-78
2022/10/01 04:38:31;;;;;;;;;;;;;;;10.88;100.00;99746.50;5045410;28;19968;-76
2022/10/01 04:40:56;;;;;;;;;;;;;;;10.94;100.00;99727.53;5046175;28;19925;-77
2022/10/01 04:43:21;;;;;;;;;;;;;;;10.96;100.00;99738.88;5046763;28;19940;-77
2022/10/01 04:45:46;;;;;;;;;;;;;;;10.99;100.00;99744.84;5046768;28;20445;-77
2022/10/01 04:48:12;;;;;;;;;;;;;;;11.02;100.00;99737.63;5044187;28;20013;-77
2022/10/01 04:50:37;;;;;;;;;;;;;;;11.04;100.00;99746.31;5045219;28;19932;-77
2022/10/01 04:53:03;;;;;;;;;;;;;;;11.06;100.00;99744.44;5044764;28;20039;-77
2022/10/01 04:55:28;;;;;;;;;;;;;;;11.09;100.00;99744.22;5044871;28;19975;-77
2022/10/01 04:57:54;;;;;;;;;;;;;;;11.10;100.00;99740.63;5044449;28;19929;-77
2022/10/01 05:00:20;;;;;;;;;;;;;;;11.09;100.00;99736.28;5045262;28;19955;-78
2022/10/01 05:02:48;;;;;;;;;;;;;;;11.08;100.00;99743.41;5043759;28;19924;-77
2022/10/01 05:05:14;;;;;;;;;;;;;;;11.07;100.00;99746.97;5040117;28;19932;-77
2022/10/01 05:07:39;;;;;;;;;;;;;;;11.05;100.00;99754.19;5046404;28;19986;-78
2022/10/01 05:10:05;;;;;;;;;;;;;;;11.06;100.00;99760.34;5049176;28;19928;-77
2022/10/01 05:12:31;;;;;;;;;;;;;;;11.04;100.00;99757.78;5047308;28;19924;-77
2022/10/01 05:14:56;;;;;;;;;;;;;;;11.05;100.00;99774.53;5048221;28;19951;-77
2022/10/01 05:17:22;;;;;;;;;;;;;;;11.04;100.00;99772.81;5045872;28;19928;-77
2022/10/01 05:19:48;;;;;;;;;;;;;;;11.06;100.00;99784.16;5061297;28;19925;-77
2022/10/01 05:22:13;;;;;;;;;;;;;;;11.09;100.00;99781.31;5029488;28;20007;-77
2022/10/01 05:24:39;;;;;;;;;;;;;;;11.10;100.00;99788.31;5047764;28;19931;-78
2022/10/01 05:27:05;;;;;;;;;;;;;;;11.14;100.00;99790.69;5048958;28;20692;-78
2022/10/01 05:29:32;;;;;;;;;;;;;;;11.17;100.00;99794.06;5045945;28;21370;-78
2022/10/01 05:31:57;;;;;;;;;;;;;;;11.19;100.00;99797.47;5045578;28;19924;-78
2022/10/01 05:34:22;;;;;;;;;;;;;;;11.21;100.00;99798.19;5045462;28;19963;-76
2022/10/01 05:36:48;;;;;;;;;;;;;;;11.23;100.00;99799.81;5045443;28;19944;-77
2022/10/01 05:39:13;;;;;;;;;;;;;;;11.26;100.00;99794.31;5049154;28;20311;-77
2022/10/01 05:41:39;;;;;;;;;;;;;;;11.27;100.00;99800.47;5048608;28;20021;-77
2022/10/01 05:44:05;;;;;;;;;;;;;;;11.28;100.00;99803.00;5049481;28;19972;-78
2022/10/01 05:46:31;;;;;;;;;;;;;;;11.31;100.00;99817.00;5049140;28;19920;-78
2022/10/01 05:48:57;;;;;;;;;;;;;;;11.33;100.00;99817.78;5048942;28;20075;-77
2022/10/01 05:51:23;;;;;;;;;;;;;;;11.33;100.00;99823.06;5047840;28;20373;-78
2022/10/01 05:53:48;;;;;;;;;;;;;;;11.35;100.00;99824.69;5047566;28;20041;-78
2022/10/01 05:56:14;;;;;;;;;;;;;;;11.37;100.00;99820.13;5047253;28;19935;-79
2022/10/01 05:58:39;;;;;;;;;;;;;;;11.39;100.00;99826.16;5048151;28;20364;-78
2022/10/01 06:01:04;;;;;;;;;;;;;;;11.40;100.00;99832.31;5049703;28;20391;-78
2022/10/01 06:03:30;;;;;;;;;;;;;;;11.42;100.00;99841.00;5050006;28;19933;-78
2022/10/01 06:05:55;;;;;;;;;;;;;;;11.44;100.00;99849.72;5047747;28;20357;-77
2022/10/01 06:08:21;;;;;;;;;;;;;;;11.47;100.00;99853.97;5049369;28;19932;-76
2022/10/01 06:10:47;;;;;;;;;;;;;;;11.49;100.00;99850.25;5049469;28;19929;-77
2022/10/01 06:13:16;;;;;;;;;;;;;;;11.53;100.00;99864.16;5048533;28;19933;-77
2022/10/01 06:15:42;;;;;;;;;;;;;;;11.57;100.00;99875.41;5046894;28;19979;-77
2022/10/01 06:18:11;;;;;;;;;;;;;;;11.58;100.00;99872.69;5045030;28;19924;-77
2022/10/01 06:20:37;;;;;;;;;;;;;;;11.57;100.00;99870.13;5060576;28;20862;-77
2022/10/01 06:23:06;;;;;;;;;;;;;;;11.53;100.00;99870.34;5046815;28;19933;-76
2022/10/01 06:25:32;;;;;;;;;;;;;;;11.51;100.00;99874.84;5046753;28;19968;-77
2022/10/01 06:27:58;;;;;;;;;;;;;;;11.47;100.00;99883.13;5031300;28;20040;-77
2022/10/01 06:30:27;;;;;;;;;;;;;;;11.44;100.00;99886.81;5046051;28;19951;-77
2022/10/01 06:32:58;;;;;;;;;;;;;;;11.44;100.00;99884.16;5061999;28;20398;-77
2022/10/01 06:35:23;;;;;;;;;;;;;;;11.46;100.00;99900.84;5048275;28;19982;-78
2022/10/01 06:37:48;;;;;;;;;;;;;;;11.49;100.00;99905.94;5048107;28;19928;-77
2022/10/01 06:40:14;;;;;;;;;;;;;;;11.53;100.00;99911.88;5047246;28;20020;-77
2022/10/01 06:42:45;;;;;;;;;;;;;;;11.52;100.00;99905.75;5046996;28;19932;-79
2022/10/01 06:45:10;;;;;;;;;;;;;;;11.50;100.00;99904.13;5046621;28;19920;-79
2022/10/01 06:47:36;;;;;;;;;;;;;;;11.40;100.00;99914.47;5046676;28;19993;-78
2022/10/01 06:50:02;;;;;;;;;;;;;;;11.30;100.00;99905.41;5027272;28;20326;-78
2022/10/01 06:55:11;;;;;;;;;;;;;;;11.13;100.00;99904.69;5046730;28;19963;-78
2022/10/01 06:57:37;;;;;;;;;;;;;;;11.05;100.00;99906.97;5045966;28;19936;-78
2022/10/01 07:00:02;;;;;;;;;;;;;;;11.00;100.00;99921.34;5047180;28;20015;-78
2022/10/01 07:02:28;;;;;;;;;;;;;;;10.96;100.00;99914.50;5046651;28;19986;-78
2022/10/01 07:05:00;;;;;;;;;;;;;;;10.94;100.00;99916.41;5046003;28;20015;-77
2022/10/01 07:07:29;;;;;;;;;;;;;;;10.94;100.00;99915.53;5060914;28;19968;-78
2022/10/01 07:09:55;;;;;;;;;;;;;;;10.96;100.00;99917.16;5046860;28;20031;-78
2022/10/01 07:12:21;;;;;;;;;;;;;;;11.00;100.00;99921.34;5043937;28;19936;-78
2022/10/01 07:14:46;;;;;;;;;;;;;;;11.05;100.00;99928.16;5046254;28;19971;-78
2022/10/01 07:17:11;;;;;;;;;;;;;;;11.09;100.00;99929.66;5047591;28;20622;-78
2022/10/01 07:19:37;;;;;;;;;;;;;;;11.12;100.00;99927.66;5046656;28;19955;-79
2022/10/01 07:22:02;;;;;;;;;;;;;;;11.17;100.00;99931.81;5045610;28;20457;-78
2022/10/01 07:24:28;;;;;;;;;;;;;;;11.22;100.00;99938.53;5042921;28;19928;-78
2022/10/01 07:26:54;;;;;;;;;;;;;;;11.27;100.00;99941.75;5048205;28;19929;-78
2022/10/01 07:29:22;;;;;;;;;;;;;;;11.35;100.00;99953.66;5047549;28;19956;-78
2022/10/01 07:31:49;;;;;;;;;;;;;;;11.39;100.00;99953.38;5046889;28;20028;-78
2022/10/01 07:34:14;;;;;;;;;;;;;;;11.44;100.00;99947.75;5046753;28;20295;-78
2022/10/01 07:36:41;;;;;;;;;;;;;;;11.52;100.00;99969.38;5046051;28;19940;-78
2022/10/01 07:39:07;;;;;;;;;;;;;;;11.58;100.00;99964.59;5046904;28;19928;-78
2022/10/01 07:41:32;;;;;;;;;;;;;;;11.67;100.00;99961.38;5043830;28;19924;-78
2022/10/01 07:43:57;;;;;;;;;;;;;;;11.78;100.00;99958.03;5042961;28;19928;-78
2022/10/01 07:46:23;;;;;;;;;;;;;;;11.91;100.00;99963.38;5047568;28;19946;-78
2022/10/01 07:48:48;;;;;;;;;;;;;;;12.02;100.00;99960.88;5043883;28;19924;-78
2022/10/01 07:51:13;;;;;;;;;;;;;;;12.17;100.00;99967.03;5047186;28;20019;-78
2022/10/01 07:53:39;;;;;;;;;;;;;;;12.27;100.00;99969.91;5048210;28;19928;-78
2022/10/01 07:56:04;;;;;;;;;;;;;;;12.39;100.00;99980.66;5046761;28;20398;-78
2022/10/01 07:58:29;;;;;;;;;;;;;;;12.53;100.00;99982.38;5043670;28;20012;-78
2022/10/01 08:00:57;;;;;;;;;;;;;;;12.72;100.00;99988.16;5029427;28;20359;-78
2022/10/01 08:03:23;;;;;;;;;;;;;;;12.92;100.00;99990.38;5046413;28;19932;-78
2022/10/01 08:05:48;;;;;;;;;;;;;;;13.03;100.00;99996.66;5045607;28;20715;-78
2022/10/01 08:08:14;;;;;;;;;;;;;;;13.08;100.00;100004.28;5043847;28;19936;-78
2022/10/01 08:10:40;;;;;;;;;;;;;;;13.12;100.00;100013.75;5043811;28;19948;-79
2022/10/01 08:13:07;;;;;;;;;;;;;;;13.16;100.00;100023.25;5046025;28;19938;-78
2022/10/01 08:15:35;;;;;;;;;;;;;;;13.24;100.00;100027.16;5043902;28;20062;-79
2022/10/01 08:18:02;;;;;;;;;;;;;;;13.27;100.00;100019.84;5045695;28;19975;-79
2022/10/01 08:20:29;;;;;;;;;;;;;;;13.23;100.00;100009.53;5046062;28;20402;-78
2022/10/01 08:23:00;;;;;;;;;;;;;;;13.13;100.00;100015.47;5045104;28;20313;-78
2022/10/01 08:25:25;;;;;;;;;;;;;;;12.95;100.00;100020.25;5045175;28;19925;-78
2022/10/01 08:27:52;;;;;;;;;;;;;;;12.82;100.00;100012.28;5044037;28;20299;-78
2022/10/01 08:30:18;;;;;;;;;;;;;;;12.68;100.00;100021.16;5045576;28;19932;-78
2022/10/01 08:32:43;;;;;;;;;;;;;;;12.58;100.00;100020.94;5043758;28;19928;-78
2022/10/01 08:35:08;;;;;;;;;;;;;;;12.52;100.00;100026.66;5044648;28;20656;-77
2022/10/01 08:37:34;;;;;;;;;;;;;;;12.49;100.00;100024.22;5046476;28;21236;-76
2022/10/01 08:39:59;;;;;;;;;;;;;;;12.48;100.00;100019.88;5047695;28;19982;-77
2022/10/01 08:42:32;;;;;;;;;;;;;;;12.49;100.00;100021.56;5051462;28;20319;-77
2022/10/01 08:45:02;;;;;;;;;;;;;;;12.52;100.00;100015.19;5049566;28;19954;-77
2022/10/01 08:47:33;;;;;;;;;;;;;;;12.51;100.00;100030.28;5049088;28;19924;-77
2022/10/01 08:50:00;;;;;;;;;;;;;;;12.49;100.00;100040.97;5036182;28;20023;-77
2022/10/01 08:52:29;;;;;;;;;;;;;;;12.51;100.00;100030.28;5066656;28;19943;-77
2022/10/01 08:54:55;;;;;;;;;;;;;;;12.55;100.00;100029.13;5033058;28;19925;-77
2022/10/01 08:57:21;;;;;;;;;;;;;;;12.59;100.00;100030.59;5050307;28;20075;-76
2022/10/01 08:59:47;;;;;;;;;;;;;;;12.63;100.00;100034.75;5048248;28;20339;-76
2022/10/01 09:02:25;;;;;;;;;;;;;;;12.70;100.00;100034.34;5032402;28;20031;-76
2022/10/01 09:04:55;;;;;;;;;;;;;;;12.83;100.00;100043.19;5050369;28;19960;-76
2022/10/01 09:07:24;;;;;;;;;;;;;;;13.01;100.00;100042.88;5048678;28;19994;-76
2022/10/01 09:09:59;;;;;;;;;;;;;;;13.22;100.00;100039.69;5051850;28;19944;-76
2022/10/01 09:12:28;;;;;;;;;;;;;;;13.39;100.00;100039.38;5048505;28;19928;-77
2022/10/01 09:14:59;;;;;;;;;;;;;;;13.46;100.00;100049.63;5047448;28;19929;-75
2022/10/01 09:17:36;;;;;;;;;;;;;;;13.48;100.00;100053.88;5047875;28;19935;-77
2022/10/01 09:20:13;;;;;;;;;;;;;;;13.59;100.00;100053.09;5046183;28;19925;-80
2022/10/01 09:22:48;;;;;;;;;;;;;;;13.64;100.00;100052.78;5051730;28;19932;-78
2022/10/01 09:25:17;;;;;;;;;;;;;;;13.68;100.00;100052.44;5049942;28;20278;-79
2022/10/01 09:27:42;;;;;;;;;;;;;;;13.75;100.00;100046.69;5048997;28;19924;-79
2022/10/01 09:30:13;;;;;;;;;;;;;;;13.70;100.00;100074.50;5048664;28;19951;-78
2022/10/01 09:32:40;;;;;;;;;;;;;;;13.57;100.00;100125.00;5066039;28;19928;-80
2022/10/01 09:35:33;;;;;;;;;;;;;;;13.09;100.00;100120.28;5049464;28;20118;-79
2022/10/01 09:38:03;;;;;;;;;;;;;;;12.50;100.00;100118.84;5047372;28;20387;-77
2022/10/01 09:40:33;;;;;;;;;;;;;;;12.15;100.00;100122.78;5046401;28;20379;-77
2022/10/01 09:42:59;;;;;;;;;;;;;;;11.88;100.00;100134.16;5047075;28;20371;-77
2022/10/01 09:45:25;;;;;;;;;;;;;;;11.72;100.00;100139.56;5080401;28;19994;-77
2022/10/01 09:47:50;;;;;;;;;;;;;;;11.67;100.00;100141.66;5064199;28;19932;-76
2022/10/01 09:50:21;;;;;;;;;;;;;;;11.67;100.00;100141.66;5044734;28;19924;-78
2022/10/01 09:52:47;;;;;;;;;;;;;;;11.66;100.00;100147.91;5048075;28;19962;-77
2022/10/01 09:55:22;;;;;;;;;;;;;;;11.66;100.00;100145.28;5047704;28;19935;-77
2022/10/01 09:57:50;;;;;;;;;;;;;;;11.65;100.00;100144.41;5047285;28;20146;-77
2022/10/01 10:00:16;;;;;;;;;;;;;;;11.65;100.00;100148.84;5047815;28;19928;-78
2022/10/01 10:02:42;;;;;;;;;;;;;;;11.62;100.00;100146.38;5032995;28;19924;-78
2022/10/01 10:05:09;;;;;;;;;;;;;;;11.62;100.00;100155.22;5081274;28;20227;-77
2022/10/01 10:07:41;;;;;;;;;;;;;;;11.62;100.00;100149.91;5028138;28;19928;-77
2022/10/01 10:10:14;;;;;;;;;;;;;;;11.64;100.00;100153.31;5049157;28;20002;-77
2022/10/01 10:12:40;;;;;;;;;;;;;;;11.70;100.00;100159.19;5017154;28;20447;-77
2022/10/01 10:15:06;;;;;;;;;;;;;;;11.78;100.00;100151.59;5050085;28;19932;-77
2022/10/01 10:17:33;;;;;;;;;;;;;;;11.86;100.00;100161.72;5050866;28;19928;-76
2022/10/01 10:19:59;;;;;;;;;;;;;;;11.92;100.00;100167.53;5064840;28;19925;-77
2022/10/01 10:22:25;;;;;;;;;;;;;;;11.99;100.00;100172.44;5048641;28;19928;-77
2022/10/01 10:24:54;;;;;;;;;;;;;;;12.04;100.00;100176.53;5064247;28;19943;-77
2022/10/01 10:27:24;;;;;;;;;;;;;;;12.13;100.00;100180.44;5048963;28;19991;-77
2022/10/01 10:29:59;;;;;;;;;;;;;;;12.19;100.00;100179.19;5031673;28;20419;-77
2022/10/01 10:32:25;;;;;;;;;;;;;;;12.25;100.00;100189.41;5045513;28;19936;-76
2022/10/01 10:34:50;;;;;;;;;;;;;;;12.29;100.00;100190.94;5064034;28;19928;-76
2022/10/01 10:37:17;;;;;;;;;;;;;;;12.33;100.00;100194.25;5045206;28;19928;-78
2022/10/01 10:39:45;;;;;;;;;;;;;;;12.36;100.00;100196.69;5042012;28;20558;-77
2022/10/01 10:42:14;;;;;;;;;;;;;;;12.42;100.00;100195.47;5047143;28;19929;-77
2022/10/01 10:44:40;;;;;;;;;;;;;;;12.51;100.00;100200.19;5049671;28;20442;-76
2022/10/01 10:47:13;;;;;;;;;;;;;;;12.59;100.00;100203.19;5066116;28;20411;-77
2022/10/01 10:49:48;;;;;;;;;;;;;;;12.72;100.00;100207.72;5051176;28;19928;-76
2022/10/01 10:52:18;;;;;;;;;;;;;;;12.82;100.00;100202.66;5049106;28;20047;-75
2022/10/01 10:54:45;;;;;;;;;;;;;;;12.83;100.00;100202.56;5048671;28;20042;-76
2022/10/01 10:57:30;;;;;;;;;;;;;;;12.87;100.00;100206.72;5032100;28;20318;-75
2022/10/01 10:59:55;;;;;;;;;;;;;;;12.93;100.00;100213.44;5050238;28;19931;-75
2022/10/01 11:02:22;;;;;;;;;;;;;;;12.98;100.00;100218.44;5049774;28;19929;-76
2022/10/01 11:04:48;;;;;;;;;;;;;;;13.03;100.00;100226.97;5048486;28;19931;-76
2022/10/01 11:07:17;;;;;;;;;;;;;;;13.06;100.00;100225.94;5048768;28;19920;-75
2022/10/01 11:10:01;;;;;;;;;;;;;;;13.15;100.00;100235.94;5046069;28;19929;-76
2022/10/01 11:12:34;;;;;;;;;;;;;;;13.21;100.00;100240.84;5048939;28;19925;-75
2022/10/01 11:15:22;;;;;;;;;;;;;;;13.31;100.00;100246.41;5048219;28;19929;-76
2022/10/01 11:17:59;;;;;;;;;;;;;;;13.40;100.00;100255.59;5046273;28;19943;-75
2022/10/01 11:20:34;;;;;;;;;;;;;;;13.47;100.00;100259.56;5047836;28;19924;-76
2022/10/01 11:23:21;;;;;;;;;;;;;;;13.52;100.00;100269.91;5049008;28;20380;-76
2022/10/01 11:25:46;;;;;;;;;;;;;;;13.61;100.00;100265.78;5048739;28;20011;-76
2022/10/01 11:28:30;;;;;;;;;;;;;;;13.67;100.00;100274.16;5047792;28;20215;-76
2022/10/01 11:30:55;;;;;;;;;;;;;;;13.61;100.00;100277.25;5048659;28;20027;-76
2022/10/01 11:33:43;;;;;;;;;;;;;;;13.53;100.00;100290.22;5048166;28;19927;-75
2022/10/01 11:36:35;;;;;;;;;;;;;;;13.46;100.00;100296.91;5048028;28;22089;-76
2022/10/01 11:39:01;;;;;;;;;;;;;;;13.46;100.00;100283.59;5034435;28;19952;-76
2022/10/01 11:41:29;;;;;;;;;;;;;;;13.61;100.00;100297.69;5029648;28;21421;-76
2022/10/01 11:43:56;;;;;;;;;;;;;;;13.72;100.00;100292.47;5048015;28;19925;-77
2022/10/01 11:46:34;;;;;;;;;;;;;;;13.83;100.00;100299.72;5046421;28;20331;-77
2022/10/01 11:49:01;;;;;;;;;;;;;;;13.89;100.00;100312.63;5046398;28;19929;-76
2022/10/01 11:51:31;;;;;;;;;;;;;;;13.95;100.00;100314.88;5045939;28;20264;-76
2022/10/01 11:53:58;;;;;;;;;;;;;;;14.01;100.00;100304.75;5038871;28;19936;-76
2022/10/01 11:59:18;;;;;;;;;;;;;;;14.17;100.00;100305.41;5046533;28;20311;-76
2022/10/01 12:01:44;;;;;;;;;;;;;;;14.23;100.00;100312.97;5064368;28;20150;-76
2022/10/01 12:04:16;;;;;;;;;;;;;;;14.28;100.00;100320.66;5062995;28;19932;-76
2022/10/01 12:06:42;;;;;;;;;;;;;;;14.31;100.00;100311.56;5029646;28;19924;-76
2022/10/01 12:09:13;;;;;;;;;;;;;;;14.30;100.00;100318.72;5046148;28;20418;-76
2022/10/01 12:12:00;;;;;;;;;;;;;;;14.24;100.00;100316.50;5045874;28;19931;-75
2022/10/01 12:14:30;;;;;;;;;;;;;;;14.21;100.00;100330.84;5047455;28;20005;-76
2022/10/01 12:16:58;;;;;;;;;;;;;;;14.22;100.00;100332.56;5045625;28;20371;-77
2022/10/01 12:19:27;;;;;;;;;;;;;;;14.25;100.00;100331.50;5045397;28;19929;-75
2022/10/01 12:21:57;;;;;;;;;;;;;;;14.31;100.00;100335.53;5063199;28;20098;-76
2022/10/01 12:24:27;;;;;;;;;;;;;;;14.33;100.00;100323.81;5045854;28;19928;-75
2022/10/01 12:26:53;;;;;;;;;;;;;;;14.36;100.00;100330.75;5046093;28;19924;-75
2022/10/01 12:29:37;;;;;;;;;;;;;;;14.45;100.00;100346.09;5046374;28;20291;-75
2022/10/01 12:32:02;;;;;;;;;;;;;;;14.48;100.00;100342.34;5047157;28;19925;-76
2022/10/01 12:34:32;;;;;;;;;;;;;;;14.44;100.00;100352.34;5046681;28;19929;-75
2022/10/01 12:37:11;;;;;;;;;;;;;;;14.33;100.00;100360.25;5046840;28;20380;-75
2022/10/01 12:39:55;;;;;;;;;;;;;;;14.22;100.00;100369.81;5047016;28;19929;-75
2022/10/01 12:42:39;;;;;;;;;;;;;;;14.13;100.00;100365.16;5045450;28;19929;-74
2022/10/01 12:45:09;;;;;;;;;;;;;;;13.96;100.00;100368.94;5047305;28;19928;-74
2022/10/01 12:47:37;;;;;;;;;;;;;;;13.82;100.00;100367.19;5045403;28;20342;-75